Joel, Wisconsin
Current Conditions -  °F | °C
As of 12:55 AM on Saturday 25 Oct 2014 (Local Time) from KOEO Reporting Station
Clear Clear  
Wind Chill: 54°   Ceiling: Unl
Heat Index: 54°   Visibility: 10mi
Dew Point: 47°   Wind: 8mph
Humidity: 79%   Direction: 270°W
Pressure: 29.91"   Gusts: NA
Location:  45.3559°N, 92.3527°W
Report Text: KOEO 250555Z AUTO 27007KT 10SM CLR 12/09 A2991 RMK AO2 T01200085 10131 20087 401720074
Loading
Personal Weather Stations






























Interactive Weather Map New forecast layout! Learn more

10-Day Weather Forecast

Advertisements
Track Severe Weather on mobile